Terminal Aerodrome Forecast
Issued by NWS Buffalo, NY

Home | Current Version | Previous Version | Text Only | Print | Product List | Glossary On
Versions: 1 2 3 4 5 6 7 8 9 10 11 12 13 14 15 16 17 18 19 20 21 22 23 24 25 26 27 28
235
FTUS41 KBUF 232333
TAFBUF
TAF
KBUF 232333Z 2400/2424 05010KT P6SM BKN020 OVC060
     FM240300 06012G18KT 6SM -RASN OVC020
     FM240500 06012G18KT 2SM -SN OVC015
     FM240700 06011G18KT 1SM -SN OVC007
     FM241400 03009KT 3SM -SN OVC003
     FM241800 35006KT P6SM OVC015=

USA.gov is the U.S. government's official web portal to all federal, state and local government web resources and services.